createdAt,value
2023-01-06T00:03:23.803Z,71.42
2023-01-06T00:13:27.920Z,71.14
2023-01-06T00:23:31.958Z,70.83
2023-01-06T00:33:36.255Z,70.57
2023-01-06T00:43:42.328Z,71.02
2023-01-06T00:53:46.128Z,71.42
2023-01-06T01:03:52.647Z,71.81
2023-01-06T01:13:58.021Z,72.29
2023-01-06T01:24:01.923Z,72.11
2023-01-06T01:34:05.691Z,71.59
2023-01-06T01:44:48.454Z,71.79
2023-01-06T01:54:56.248Z,71.74
2023-01-06T02:05:01.331Z,71.79
2023-01-06T02:15:33.244Z,71.70
2023-01-06T02:25:49.320Z,71.51
2023-01-06T02:36:30.101Z,72.27
2023-01-06T02:47:13.422Z,72.77
2023-01-06T02:57:36.023Z,72.88
2023-01-06T03:07:42.240Z,72.30
2023-01-06T03:17:45.946Z,72.63
2023-01-06T03:27:49.636Z,72.59
2023-01-06T03:38:15.653Z,72.39
2023-01-06T03:48:31.948Z,71.21
2023-01-06T03:58:39.141Z,70.71
2023-01-06T04:08:43.692Z,69.63
2023-01-06T04:18:47.873Z,69.12
2023-01-06T04:28:53.146Z,68.37
2023-01-06T04:38:58.749Z,67.46
2023-01-06T04:49:02.392Z,66.73
2023-01-06T04:59:05.961Z,65.86
2023-01-06T05:09:09.702Z,65.13
2023-01-06T05:19:13.247Z,64.49
2023-01-06T05:29:17.882Z,63.96
2023-01-06T05:39:23.281Z,63.92
2023-01-06T05:49:26.894Z,63.25
2023-01-06T05:59:31.194Z,62.80
2023-01-06T06:09:34.799Z,62.83
2023-01-06T06:19:38.384Z,62.54
2023-01-06T06:29:42.784Z,62.24
2023-01-06T06:39:46.407Z,61.51
2023-01-06T06:49:51.437Z,60.70
2023-01-06T06:59:56.987Z,60.35
2023-01-06T07:10:00.605Z,60.38
2023-01-06T07:20:04.663Z,60.03
2023-01-06T07:30:09.087Z,60.55
2023-01-06T07:40:13.443Z,61.09
2023-01-06T07:50:17.031Z,61.10
2023-01-06T08:00:24.815Z,60.73
2023-01-06T08:10:28.447Z,60.06
2023-01-06T08:20:34.375Z,59.70
2023-01-06T08:30:40.352Z,59.27
2023-01-06T08:40:44.163Z,58.58
2023-01-06T08:50:47.691Z,57.47
2023-01-06T09:00:52.659Z,56.76
2023-01-06T09:10:56.525Z,56.63
2023-01-06T09:21:00.077Z,56.35
2023-01-06T09:31:04.222Z,56.61
2023-01-06T09:41:26.770Z,55.76
2023-01-06T09:51:33.072Z,55.08
2023-01-06T10:01:42.882Z,55.00
2023-01-06T10:11:46.449Z,54.83
2023-01-06T10:22:19.848Z,54.12
2023-01-06T10:32:28.608Z,53.83
2023-01-06T10:42:57.780Z,53.58
2023-01-06T10:53:01.823Z,53.61
2023-01-06T11:03:31.402Z,53.54
2023-01-06T11:13:34.739Z,53.56
2023-01-06T11:23:42.540Z,53.64
2023-01-06T11:33:51.826Z,53.56
2023-01-06T11:44:04.237Z,53.27
2023-01-06T11:54:32.655Z,53.16
2023-01-06T12:04:53.831Z,53.16
2023-01-06T12:14:57.969Z,53.11
2023-01-06T12:25:05.719Z,52.93
2023-01-06T12:35:18.575Z,53.00
2023-01-06T12:45:57.111Z,52.90
2023-01-06T12:56:14.342Z,53.25
2023-01-06T13:06:49.073Z,53.47
2023-01-06T13:17:03.682Z,53.56
2023-01-06T13:27:16.399Z,53.93
2023-01-06T13:37:30.354Z,53.88
2023-01-06T13:47:36.041Z,54.09
2023-01-06T13:57:41.545Z,54.36
2023-01-06T14:08:10.044Z,54.53
2023-01-06T14:18:31.154Z,54.75
2023-01-06T14:28:34.757Z,55.05
2023-01-06T14:38:48.765Z,55.57
2023-01-06T14:49:15.627Z,55.86
2023-01-06T15:11:33.641Z,55.85
2023-01-06T15:21:42.041Z,55.85
2023-01-06T15:31:48.688Z,55.92
2023-01-06T15:41:53.360Z,55.96
2023-01-06T15:52:03.343Z,55.98
2023-01-06T16:02:18.624Z,55.79
2023-01-06T16:12:23.099Z,56.08
2023-01-06T16:22:41.382Z,56.39
2023-01-06T16:32:46.962Z,56.94
2023-01-06T16:42:56.309Z,57.66
2023-01-06T16:53:12.566Z,58.59
2023-01-06T17:03:18.675Z,59.50
2023-01-06T17:13:40.024Z,59.93
2023-01-06T17:24:33.472Z,60.84
2023-01-06T17:34:37.859Z,61.07
2023-01-06T17:44:42.818Z,61.57
2023-01-06T17:55:18.691Z,62.10
2023-01-06T18:05:22.314Z,62.18
2023-01-06T18:15:34.477Z,62.42
2023-01-06T18:25:39.211Z,62.36
2023-01-06T18:35:43.957Z,62.41
2023-01-06T18:45:51.850Z,62.58
2023-01-06T19:07:33.145Z,63.35
2023-01-06T19:17:48.855Z,63.62
2023-01-06T19:27:58.085Z,63.91
2023-01-06T19:38:09.819Z,64.28
2023-01-06T19:48:26.902Z,64.11
2023-01-06T19:58:35.689Z,64.29
2023-01-06T20:08:41.496Z,64.14
2023-01-06T20:18:45.003Z,64.13
2023-01-06T20:28:48.876Z,64.31
2023-01-06T20:38:52.575Z,64.40
2023-01-06T20:48:56.072Z,64.52
2023-01-06T20:58:59.923Z,64.43
2023-01-06T21:09:03.695Z,64.54
2023-01-06T21:19:07.215Z,64.72
2023-01-06T21:29:10.860Z,64.92
2023-01-06T21:39:16.234Z,64.76
2023-01-06T21:49:19.687Z,65.23
2023-01-06T21:59:23.814Z,65.12
2023-01-06T22:09:30.702Z,65.06
2023-01-06T22:19:34.971Z,65.20
2023-01-06T22:29:38.659Z,65.22
2023-01-06T22:39:44.232Z,65.12
2023-01-06T22:49:47.872Z,65.36
2023-01-06T22:59:51.421Z,64.96
2023-01-06T23:09:58.171Z,64.73
2023-01-06T23:20:01.751Z,64.73
2023-01-06T23:30:06.322Z,65.03
2023-01-06T23:40:10.437Z,64.66
2023-01-06T23:50:14.489Z,64.62
